Time,TemperatureF,DewpointF,PressureIn,WindDirection,WindDirectionDegrees,WindSpeedMPH,WindSpeedGustMPH,Humidity,HourlyPrecipIn,Conditions,Clouds,dailyrainin,SoftwareType,DateUTC
2013-04-02 00:04:00,54.7,43.2,30.03,ENE,68,0.0,0.0,65,0.00,,,0.00,VWS V14.01,2013-04-02 07:04:00,
2013-04-02 00:09:00,54.7,43.2,30.03,East,90,0.0,0.0,65,0.00,,,0.00,VWS V14.01,2013-04-02 07:09:00,
2013-04-02 00:14:00,54.7,43.2,30.03,ENE,68,2.2,2.2,65,0.00,,,0.00,VWS V14.01,2013-04-02 07:14:00,
2013-04-02 00:19:00,54.9,42.9,30.03,NE,45,0.0,0.0,64,0.00,,,0.00,VWS V14.01,2013-04-02 07:19:00,
2013-04-02 00:24:00,54.9,42.9,30.03,ENE,68,0.0,2.2,64,0.00,,,0.00,VWS V14.01,2013-04-02 07:24:00,
2013-04-02 00:29:00,54.9,42.9,30.03,ENE,68,0.0,0.0,64,0.00,,,0.00,VWS V14.01,2013-04-02 07:29:00,
2013-04-02 00:34:00,54.9,42.9,30.03,East,90,0.0,0.0,64,0.00,,,0.00,VWS V14.01,2013-04-02 07:34:00,
2013-04-02 00:40:00,54.7,43.2,30.03,South,180,0.0,0.0,65,0.00,,,0.00,VWS V14.01,2013-04-02 07:40:00,
2013-04-02 00:45:00,54.7,43.2,30.03,SSW,202,3.1,3.1,65,0.00,,,0.00,VWS V14.01,2013-04-02 07:45:00,
2013-04-02 00:50:00,54.5,43.0,30.03,ENE,68,0.0,0.0,65,0.00,,,0.00,VWS V14.01,2013-04-02 07:50:00,
2013-04-02 00:56:00,54.5,43.4,30.03,South,180,0.0,3.1,66,0.00,,,0.00,VWS V14.01,2013-04-02 07:56:00,
2013-04-02 01:01:00,54.5,43.4,30.06,North,0,0.0,0.0,66,0.00,,,0.00,VWS V14.01,2013-04-02 08:01:00,
2013-04-02 01:06:00,54.5,43.8,30.06,SE,135,2.2,3.1,67,0.00,,,0.00,VWS V14.01,2013-04-02 08:06:00,
2013-04-02 01:12:00,54.3,43.6,30.06,ESE,112,0.0,2.2,67,0.00,,,0.00,VWS V14.01,2013-04-02 08:12:00,
2013-04-02 01:17:00,54.3,43.6,30.03,ENE,68,0.0,0.0,67,0.00,,,0.00,VWS V14.01,2013-04-02 08:17:00,
2013-04-02 01:22:00,54.3,44.0,30.03,NNW,338,2.2,2.2,68,0.00,,,0.00,VWS V14.01,2013-04-02 08:22:00,
2013-04-02 01:28:00,54.1,43.8,30.03,SSW,202,2.2,2.2,68,0.00,,,0.00,VWS V14.01,2013-04-02 08:28:00,
2013-04-02 01:33:00,54.1,43.8,30.06,SE,135,0.0,3.1,68,0.00,,,0.00,VWS V14.01,2013-04-02 08:33:00,
2013-04-02 01:38:00,54.3,44.0,30.06,SSW,202,0.0,2.7,68,0.00,,,0.00,VWS V14.01,2013-04-02 08:38:00,
2013-04-02 01:44:00,54.3,44.0,30.06,SSW,202,3.6,3.6,68,0.00,,,0.00,VWS V14.01,2013-04-02 08:44:00,
2013-04-02 01:49:00,54.3,44.8,30.06,West,270,2.2,3.6,70,0.00,,,0.00,VWS V14.01,2013-04-02 08:49:00,
2013-04-02 01:54:00,54.1,45.3,30.06,NNE,22,3.6,3.6,72,0.00,,,0.00,VWS V14.01,2013-04-02 08:54:00,
2013-04-02 02:00:00,54.0,45.5,30.06,WSW,248,4.0,4.0,73,0.00,,,0.00,VWS V14.01,2013-04-02 09:00:00,
2013-04-02 02:05:00,53.8,46.0,30.06,SSW,202,4.0,4.9,75,0.00,,,0.00,VWS V14.01,2013-04-02 09:05:00,
2013-04-02 02:10:00,53.8,46.4,30.06,South,180,0.0,3.6,76,0.00,,,0.00,VWS V14.01,2013-04-02 09:10:00,
2013-04-02 02:16:00,53.6,46.6,30.06,SSW,202,2.7,3.6,77,0.00,,,0.00,VWS V14.01,2013-04-02 09:16:00,
2013-04-02 02:21:00,53.4,46.7,30.06,SSW,202,3.1,3.1,78,0.00,,,0.00,VWS V14.01,2013-04-02 09:21:00,
2013-04-02 02:26:00,53.4,46.7,30.06,SSW,202,3.6,3.6,78,0.00,,,0.00,VWS V14.01,2013-04-02 09:26:00,
2013-04-02 02:31:00,53.4,47.1,30.06,SW,225,2.7,3.1,79,0.00,,,0.00,VWS V14.01,2013-04-02 09:31:00,
2013-04-02 02:37:00,53.4,47.1,30.06,West,270,3.6,3.6,79,0.00,,,0.00,VWS V14.01,2013-04-02 09:37:00,
2013-04-02 02:42:00,53.6,46.9,30.06,WSW,248,0.0,3.1,78,0.00,,,0.00,VWS V14.01,2013-04-02 09:42:00,
2013-04-02 02:47:00,53.6,46.9,30.06,NW,315,0.0,0.0,78,0.00,,,0.00,VWS V14.01,2013-04-02 09:47:00,
2013-04-02 02:52:00,53.6,46.9,30.06,SSW,202,0.0,3.6,78,0.00,,,0.00,VWS V14.01,2013-04-02 09:52:00,
2013-04-02 02:57:00,53.4,46.7,30.06,SSW,202,2.7,2.7,78,0.00,,,0.00,VWS V14.01,2013-04-02 09:57:00,
2013-04-02 03:02:00,53.4,46.7,30.03,SSW,202,4.0,4.0,78,0.00,,,0.00,VWS V14.01,2013-04-02 10:02:00,
2013-04-02 03:08:00,53.2,46.6,30.03,SSE,158,2.7,3.6,78,0.00,,,0.00,VWS V14.01,2013-04-02 10:08:00,
2013-04-02 03:13:00,53.2,46.6,30.03,SSW,202,3.6,3.6,78,0.00,,,0.00,VWS V14.01,2013-04-02 10:13:00,
2013-04-02 03:18:00,53.2,46.6,30.03,WNW,292,0.0,2.7,78,0.00,,,0.00,VWS V14.01,2013-04-02 10:18:00,
2013-04-02 03:24:00,53.1,46.4,30.03,South,180,2.2,2.2,78,0.00,,,0.00,VWS V14.01,2013-04-02 10:24:00,
2013-04-02 03:29:00,53.1,46.7,30.03,SSW,202,0.0,2.7,79,0.00,,,0.00,VWS V14.01,2013-04-02 10:29:00,
2013-04-02 03:34:00,53.1,46.7,30.03,SSE,158,0.0,0.0,79,0.00,,,0.00,VWS V14.01,2013-04-02 10:34:00,
2013-04-02 03:40:00,53.1,46.7,30.03,WNW,292,0.0,2.2,79,0.00,,,0.00,VWS V14.01,2013-04-02 10:40:00,
2013-04-02 03:45:00,53.1,47.1,30.03,SSW,202,0.0,0.0,80,0.00,,,0.00,VWS V14.01,2013-04-02 10:45:00,
2013-04-02 03:50:00,53.1,47.1,30.03,SSW,202,2.7,2.7,80,0.00,,,0.00,VWS V14.01,2013-04-02 10:50:00,
2013-04-02 03:55:00,53.1,47.1,30.03,ESE,112,0.0,3.1,80,0.00,,,0.00,VWS V14.01,2013-04-02 10:55:00,
2013-04-02 04:01:00,53.1,47.1,30.03,SSW,202,2.2,2.7,80,0.00,,,0.00,VWS V14.01,2013-04-02 11:01:00,
2013-04-02 04:06:00,53.1,47.1,30.03,ESE,112,0.0,0.0,80,0.00,,,0.00,VWS V14.01,2013-04-02 11:06:00,
2013-04-02 04:11:00,53.1,46.7,30.03,South,180,4.0,4.0,79,0.00,,,0.00,VWS V14.01,2013-04-02 11:11:00,
2013-04-02 04:16:00,53.1,46.7,30.03,ESE,112,2.7,4.9,79,0.00,,,0.00,VWS V14.01,2013-04-02 11:16:00,
2013-04-02 04:21:00,53.1,46.4,30.03,South,180,0.0,2.2,78,0.00,,,0.00,VWS V14.01,2013-04-02 11:21:00,
2013-04-02 04:27:00,53.1,46.0,30.03,ENE,68,2.7,2.7,77,0.00,,,0.00,VWS V14.01,2013-04-02 11:27:00,
2013-04-02 04:32:00,53.1,46.0,30.03,South,180,2.7,2.7,77,0.00,,,0.00,VWS V14.01,2013-04-02 11:32:00,
2013-04-02 04:37:00,53.2,46.2,30.03,SSE,158,0.0,0.0,77,0.00,,,0.00,VWS V14.01,2013-04-02 11:37:00,
2013-04-02 04:43:00,53.1,46.0,30.03,ENE,68,0.0,0.0,77,0.00,,,0.00,VWS V14.01,2013-04-02 11:43:00,
2013-04-02 04:48:00,52.9,45.9,30.03,SE,135,0.0,0.0,77,0.00,,,0.00,VWS V14.01,2013-04-02 11:48:00,
2013-04-02 04:54:00,52.7,45.4,30.03,SSE,158,0.0,0.0,76,0.00,,,0.00,VWS V14.01,2013-04-02 11:54:00,
2013-04-02 04:59:00,52.7,45.4,30.03,SSW,202,3.6,3.6,76,0.00,,,0.00,VWS V14.01,2013-04-02 11:59:00,
2013-04-02 05:04:00,52.7,45.4,30.03,SSE,158,0.0,0.0,76,0.00,,,0.00,VWS V14.01,2013-04-02 12:04:00,
2013-04-02 05:09:00,52.7,45.4,30.03,SSW,202,2.2,2.7,76,0.00,,,0.00,VWS V14.01,2013-04-02 12:09:00,
2013-04-02 05:14:00,52.7,45.4,30.03,SSW,202,0.0,0.0,76,0.00,,,0.00,VWS V14.01,2013-04-02 12:14:00,
2013-04-02 05:20:00,52.7,45.4,30.03,SSE,158,0.0,0.0,76,0.00,,,0.00,VWS V14.01,2013-04-02 12:20:00,
2013-04-02 05:25:00,52.7,45.0,30.03,ENE,68,0.0,0.0,75,0.00,,,0.00,VWS V14.01,2013-04-02 12:25:00,
2013-04-02 05:30:00,52.7,45.0,30.03,East,90,0.0,0.0,75,0.00,,,0.00,VWS V14.01,2013-04-02 12:30:00,
2013-04-02 05:35:00,52.7,45.0,30.03,North,0,0.0,2.2,75,0.00,,,0.00,VWS V14.01,2013-04-02 12:35:00,
2013-04-02 05:40:00,52.9,45.2,30.03,NNE,22,0.0,0.0,75,0.00,,,0.00,VWS V14.01,2013-04-02 12:40:00,
2013-04-02 05:45:00,52.9,44.8,30.03,ENE,68,0.0,0.0,74,0.00,,,0.00,VWS V14.01,2013-04-02 12:45:00,
2013-04-02 05:51:00,52.9,44.8,30.03,NNE,22,0.0,0.0,74,0.00,,,0.00,VWS V14.01,2013-04-02 12:51:00,
2013-04-02 05:56:00,52.9,44.8,30.03,SSE,158,0.0,0.0,74,0.00,,,0.00,VWS V14.01,2013-04-02 12:56:00,
2013-04-02 06:02:00,52.9,44.8,30.03,South,180,2.7,2.7,74,0.00,,,0.00,VWS V14.01,2013-04-02 13:02:00,
2013-04-02 06:07:00,52.9,44.8,30.03,WSW,248,0.0,0.0,74,0.00,,,0.00,VWS V14.01,2013-04-02 13:07:00,
2013-04-02 06:13:00,52.9,44.8,30.03,SSW,202,2.2,2.7,74,0.00,,,0.00,VWS V14.01,2013-04-02 13:13:00,
2013-04-02 06:18:00,52.9,45.2,30.03,South,180,0.0,2.7,75,0.00,,,0.00,VWS V14.01,2013-04-02 13:18:00,
2013-04-02 06:23:00,52.7,45.0,30.03,SSW,202,2.2,3.1,75,0.00,,,0.00,VWS V14.01,2013-04-02 13:23:00,
2013-04-02 06:28:00,52.7,45.0,30.03,South,180,2.7,2.7,75,0.00,,,0.00,VWS V14.01,2013-04-02 13:28:00,
2013-04-02 06:33:00,52.7,45.4,30.03,SW,225,2.7,2.7,76,0.00,,,0.00,VWS V14.01,2013-04-02 13:33:00,
2013-04-02 06:39:00,52.7,45.4,30.03,SSW,202,4.0,5.4,76,0.00,,,0.00,VWS V14.01,2013-04-02 13:39:00,
2013-04-02 06:44:00,52.7,45.7,30.03,SSE,158,2.2,2.7,77,0.00,,,0.00,VWS V14.01,2013-04-02 13:44:00,
2013-04-02 06:49:00,52.5,45.5,30.03,WSW,248,3.6,3.6,77,0.00,,,0.00,VWS V14.01,2013-04-02 13:49:00,
2013-04-02 06:54:00,52.5,45.5,30.03,SW,225,2.7,3.1,77,0.00,,,0.00,VWS V14.01,2013-04-02 13:54:00,
2013-04-02 06:59:00,52.5,45.5,30.03,SSW,202,2.7,2.7,77,0.00,,,0.00,VWS V14.01,2013-04-02 13:59:00,
2013-04-02 07:05:00,52.5,45.5,30.06,SSW,202,0.0,3.1,77,0.00,,,0.00,VWS V14.01,2013-04-02 14:05:00,
2013-04-02 07:10:00,52.7,45.7,30.06,South,180,3.6,3.6,77,0.00,,,0.00,VWS V14.01,2013-04-02 14:10:00,
2013-04-02 07:16:00,52.7,46.0,30.06,East,90,2.2,3.6,78,0.00,,,0.00,VWS V14.01,2013-04-02 14:16:00,
2013-04-02 07:21:00,52.7,46.0,30.06,North,0,0.0,2.7,78,0.00,,,0.00,VWS V14.01,2013-04-02 14:21:00,
2013-04-02 07:26:00,52.9,46.2,30.06,SSW,202,0.0,3.1,78,0.00,,,0.00,VWS V14.01,2013-04-02 14:26:00,
2013-04-02 07:31:00,53.1,46.4,30.06,ENE,68,0.0,3.1,78,0.00,,,0.00,VWS V14.01,2013-04-02 14:31:00,
2013-04-02 07:36:00,53.2,46.6,30.06,ENE,68,0.0,0.0,78,0.00,,,0.00,VWS V14.01,2013-04-02 14:36:00,
2013-04-02 07:42:00,53.2,46.2,30.06,South,180,0.0,2.7,77,0.00,,,0.00,VWS V14.01,2013-04-02 14:42:00,
2013-04-02 07:47:00,53.4,46.4,30.03,NNW,338,0.0,2.7,77,0.00,,,0.00,VWS V14.01,2013-04-02 14:47:00,
2013-04-02 07:52:00,53.6,46.2,30.03,NE,45,0.0,0.0,76,0.00,,,0.00,VWS V14.01,2013-04-02 14:52:00,
2013-04-02 07:57:00,54.1,46.8,30.03,NNW,338,2.2,2.7,76,0.00,,,0.00,VWS V14.01,2013-04-02 14:57:00,
2013-04-02 08:02:00,54.3,46.9,30.06,WNW,292,0.0,0.0,76,0.00,,,0.00,VWS V14.01,2013-04-02 15:02:00,
2013-04-02 08:07:00,54.5,46.8,30.06,NNW,338,0.0,0.0,75,0.00,,,0.00,VWS V14.01,2013-04-02 15:07:00,
2013-04-02 08:12:00,54.3,46.2,30.06,NNW,338,2.7,3.1,74,0.00,,,0.00,VWS V14.01,2013-04-02 15:12:00,
2013-04-02 08:17:00,54.0,45.5,30.06,NNW,338,2.7,2.7,73,0.00,,,0.00,VWS V14.01,2013-04-02 15:17:00,
2013-04-02 08:22:00,53.8,45.3,30.06,North,0,2.7,2.7,73,0.00,,,0.00,VWS V14.01,2013-04-02 15:22:00,
2013-04-02 08:28:00,54.0,45.5,30.06,North,0,3.1,3.6,73,0.00,,,0.00,VWS V14.01,2013-04-02 15:28:00,
2013-04-02 08:33:00,54.1,45.7,30.06,ENE,68,3.1,4.0,73,0.00,,,0.00,VWS V14.01,2013-04-02 15:33:00,
2013-04-02 08:38:00,54.5,45.7,30.06,South,180,0.0,2.2,72,0.00,,,0.00,VWS V14.01,2013-04-02 15:38:00,
2013-04-02 08:43:00,54.5,45.7,30.06,ESE,112,2.7,2.7,72,0.00,,,0.00,VWS V14.01,2013-04-02 15:43:00,
2013-04-02 08:48:00,54.5,45.3,30.06,ENE,68,0.0,2.2,71,0.00,,,0.00,VWS V14.01,2013-04-02 15:48:00,
2013-04-02 08:54:00,54.9,45.7,30.06,NNE,22,2.2,3.6,71,0.00,,,0.00,VWS V14.01,2013-04-02 15:54:00,
2013-04-02 08:59:00,54.7,45.5,30.06,SSE,158,2.7,2.7,71,0.00,,,0.00,VWS V14.01,2013-04-02 15:59:00,
2013-04-02 09:04:00,55.0,45.8,30.06,SE,135,0.0,0.0,71,0.00,,,0.00,VWS V14.01,2013-04-02 16:04:00,
2013-04-02 09:10:00,54.9,45.3,30.06,NW,315,0.0,3.1,70,0.00,,,0.00,VWS V14.01,2013-04-02 16:10:00,
2013-04-02 09:15:00,55.0,45.8,30.06,NNW,338,3.1,3.1,71,0.00,,,0.00,VWS V14.01,2013-04-02 16:15:00,
2013-04-02 09:20:00,55.4,45.8,30.06,NNW,338,5.8,5.8,70,0.00,,,0.00,VWS V14.01,2013-04-02 16:20:00,
2013-04-02 09:25:00,54.9,45.3,30.06,North,0,6.3,7.6,70,0.00,,,0.00,VWS V14.01,2013-04-02 16:25:00,
2013-04-02 09:31:00,54.5,45.3,30.06,NNW,338,5.4,5.4,71,0.00,,,0.00,VWS V14.01,2013-04-02 16:31:00,
2013-04-02 09:37:00,54.9,45.7,30.06,NNW,338,5.4,6.3,71,0.00,,,0.00,VWS V14.01,2013-04-02 16:37:00,
2013-04-02 09:42:00,55.0,45.8,30.06,North,0,4.0,7.2,71,0.00,,,0.00,VWS V14.01,2013-04-02 16:42:00,
2013-04-02 09:48:00,54.9,45.3,30.06,WNW,292,3.6,5.8,70,0.00,,,0.00,VWS V14.01,2013-04-02 16:48:00,
2013-04-02 09:53:00,55.0,45.5,30.06,NNW,338,4.0,5.4,70,0.00,,,0.00,VWS V14.01,2013-04-02 16:53:00,
2013-04-02 09:58:00,54.7,45.1,30.06,North,0,5.8,7.2,70,0.00,,,0.00,VWS V14.01,2013-04-02 16:58:00,
2013-04-02 10:03:00,54.5,45.3,30.06,North,0,5.4,5.8,71,0.00,,,0.00,VWS V14.01,2013-04-02 17:03:00,
2013-04-02 10:08:00,54.9,45.3,30.06,NE,45,3.1,3.1,70,0.00,,,0.00,VWS V14.01,2013-04-02 17:08:00,
2013-04-02 10:14:00,55.2,45.2,30.06,NNE,22,4.9,5.8,69,0.00,,,0.00,VWS V14.01,2013-04-02 17:14:00,
2013-04-02 10:19:00,55.0,45.1,30.06,NW,315,4.9,5.4,69,0.00,,,0.00,VWS V14.01,2013-04-02 17:19:00,
2013-04-02 10:24:00,55.2,45.6,30.06,North,0,4.9,4.9,70,0.00,,,0.00,VWS V14.01,2013-04-02 17:24:00,
2013-04-02 10:29:00,55.0,45.5,30.06,North,0,4.0,4.9,70,0.00,,,0.00,VWS V14.01,2013-04-02 17:29:00,
2013-04-02 10:34:00,55.2,45.6,30.09,NNW,338,4.0,5.8,70,0.00,,,0.00,VWS V14.01,2013-04-02 17:34:00,
2013-04-02 10:40:00,55.4,45.4,30.09,North,0,4.0,4.9,69,0.00,,,0.00,VWS V14.01,2013-04-02 17:40:00,
2013-04-02 10:45:00,55.8,45.8,30.09,ESE,112,0.0,2.2,69,0.00,,,0.00,VWS V14.01,2013-04-02 17:45:00,
2013-04-02 10:50:00,55.8,45.4,30.06,WNW,292,3.1,3.6,68,0.00,,,0.00,VWS V14.01,2013-04-02 17:50:00,
2013-04-02 10:56:00,55.9,45.9,30.06,WNW,292,2.2,2.2,69,0.00,,,0.00,VWS V14.01,2013-04-02 17:56:00,
2013-04-02 11:01:00,56.3,46.3,30.06,ESE,112,4.0,4.0,69,0.00,,,0.00,VWS V14.01,2013-04-02 18:01:00,
2013-04-02 11:06:00,56.5,46.5,30.06,NE,45,0.0,3.6,69,0.00,,,0.00,VWS V14.01,2013-04-02 18:06:00,
2013-04-02 11:11:00,56.8,46.4,30.06,SE,135,0.0,0.0,68,0.00,,,0.00,VWS V14.01,2013-04-02 18:11:00,
2013-04-02 11:17:00,57.6,46.7,30.09,East,90,4.9,6.3,67,0.00,,,0.00,VWS V14.01,2013-04-02 18:17:00,
2013-04-02 11:22:00,57.7,46.1,30.09,WSW,248,5.8,5.8,65,0.00,,,0.00,VWS V14.01,2013-04-02 18:22:00,
2013-04-02 11:27:00,58.6,46.1,30.09,WSW,248,2.7,2.7,63,0.00,,,0.00,VWS V14.01,2013-04-02 18:27:00,
2013-04-02 11:32:00,60.1,45.7,30.09,NE,45,0.0,2.2,59,0.00,,,0.00,VWS V14.01,2013-04-02 18:32:00,
2013-04-02 11:38:00,61.3,45.0,30.09,ESE,112,0.0,2.2,55,0.00,,,0.00,VWS V14.01,2013-04-02 18:38:00,
2013-04-02 11:43:00,62.2,44.4,30.09,SSW,202,3.1,3.1,52,0.00,,,0.00,VWS V14.01,2013-04-02 18:43:00,
2013-04-02 11:48:00,62.1,43.2,30.09,SSW,202,3.6,3.6,50,0.00,,,0.00,VWS V14.01,2013-04-02 18:48:00,
2013-04-02 11:54:00,61.9,43.6,30.09,SSW,202,0.0,4.9,51,0.00,,,0.00,VWS V14.01,2013-04-02 18:54:00,
2013-04-02 11:59:00,61.5,43.2,30.09,SSW,202,3.6,5.8,51,0.00,,,0.00,VWS V14.01,2013-04-02 18:59:00,
2013-04-02 12:04:00,61.5,43.2,30.06,ESE,112,3.1,3.1,51,0.00,,,0.00,VWS V14.01,2013-04-02 19:04:00,
2013-04-02 12:10:00,61.5,42.7,30.06,SSW,202,4.0,6.3,50,0.00,,,0.00,VWS V14.01,2013-04-02 19:10:00,
2013-04-02 12:15:00,62.1,43.7,30.06,SE,135,0.0,2.2,51,0.00,,,0.00,VWS V14.01,2013-04-02 19:15:00,
2013-04-02 12:20:00,62.8,43.9,30.06,South,180,3.1,3.1,50,0.00,,,0.00,VWS V14.01,2013-04-02 19:20:00,
2013-04-02 12:27:00,63.0,43.5,30.06,SSW,202,2.7,6.7,49,0.00,,,0.00,VWS V14.01,2013-04-02 19:27:00,
2013-04-02 12:32:00,62.8,42.8,30.06,South,180,2.2,4.9,48,0.00,,,0.00,VWS V14.01,2013-04-02 19:32:00,
2013-04-02 12:37:00,64.0,44.0,30.06,SSW,202,4.0,4.5,48,0.00,,,0.21,VWS V14.01,2013-04-02 19:37:00,
2013-04-02 12:43:00,64.4,43.8,30.06,WSW,248,2.7,3.6,47,0.00,,,0.00,VWS V14.01,2013-04-02 19:43:00,
2013-04-02 12:48:00,64.2,43.0,30.06,SSE,158,5.4,5.4,46,0.00,,,0.00,VWS V14.01,2013-04-02 19:48:00,
2013-04-02 12:53:00,64.2,43.0,30.06,SSW,202,4.0,4.0,46,0.00,,,0.00,VWS V14.01,2013-04-02 19:53:00,
2013-04-02 12:59:00,64.8,43.0,30.06,WSW,248,4.9,4.9,45,0.00,,,0.00,VWS V14.01,2013-04-02 19:59:00,
2013-04-02 13:04:00,64.2,43.0,30.06,SSE,158,2.2,5.8,46,0.00,,,0.00,VWS V14.01,2013-04-02 20:04:00,
2013-04-02 13:09:00,64.2,43.0,30.06,SSW,202,4.0,4.9,46,0.00,,,0.00,VWS V14.01,2013-04-02 20:09:00,
2013-04-02 13:14:00,63.9,42.7,30.06,WSW,248,3.1,3.1,46,0.00,,,0.00,VWS V14.01,2013-04-02 20:14:00,
2013-04-02 13:20:00,63.5,42.4,30.06,NNW,338,2.7,2.7,46,0.00,,,0.00,VWS V14.01,2013-04-02 20:20:00,
2013-04-02 13:25:00,64.0,43.4,30.06,SSW,202,2.2,4.0,47,0.00,,,0.00,VWS V14.01,2013-04-02 20:25:00,
2013-04-02 13:30:00,64.9,43.1,30.06,SSW,202,4.5,5.4,45,0.00,,,0.00,VWS V14.01,2013-04-02 20:30:00,
2013-04-02 13:36:00,64.4,43.2,30.06,SSW,202,3.1,3.1,46,0.00,,,0.00,VWS V14.01,2013-04-02 20:36:00,
2013-04-02 13:41:00,64.0,42.9,30.06,ESE,112,5.4,5.4,46,0.00,,,0.00,VWS V14.01,2013-04-02 20:41:00,
2013-04-02 13:46:00,63.7,42.5,30.06,SW,225,3.1,3.6,46,0.00,,,0.00,VWS V14.01,2013-04-02 20:46:00,
2013-04-02 13:51:00,63.9,43.3,30.06,South,180,4.0,4.0,47,0.00,,,0.00,VWS V14.01,2013-04-02 20:51:00,
2013-04-02 13:57:00,64.9,43.7,30.06,North,0,2.7,2.7,46,0.00,,,0.00,VWS V14.01,2013-04-02 20:57:00,
2013-04-02 14:02:00,64.4,42.6,30.06,SSW,202,7.2,7.6,45,0.00,,,0.00,VWS V14.01,2013-04-02 21:02:00,
2013-04-02 14:08:00,63.3,42.8,30.06,SW,225,4.9,4.9,47,0.00,,,0.00,VWS V14.01,2013-04-02 21:08:00,
2013-04-02 14:13:00,62.6,42.7,30.06,SSW,202,2.7,3.6,48,0.00,,,0.00,VWS V14.01,2013-04-02 21:13:00,
2013-04-02 14:19:00,62.6,42.7,30.03,SSE,158,4.0,6.3,48,0.00,,,0.00,VWS V14.01,2013-04-02 21:19:00,
2013-04-02 14:25:00,61.7,42.4,30.03,SSW,202,2.7,3.1,49,0.00,,,0.00,VWS V14.01,2013-04-02 21:25:00,
2013-04-02 14:30:00,62.2,42.9,30.03,North,0,2.2,4.0,49,0.00,,,0.00,VWS V14.01,2013-04-02 21:30:00,
2013-04-02 14:35:00,63.1,43.2,30.03,SE,135,2.7,2.7,48,0.00,,,0.00,VWS V14.01,2013-04-02 21:35:00,
2013-04-02 14:40:00,63.9,43.3,30.03,West,270,4.0,4.0,47,0.00,,,0.00,VWS V14.01,2013-04-02 21:40:00,
2013-04-02 14:46:00,63.3,42.8,30.03,NNW,338,4.0,4.0,47,0.00,,,0.00,VWS V14.01,2013-04-02 21:46:00,
2013-04-02 14:51:00,62.1,42.2,30.03,WSW,248,2.7,4.9,48,0.00,,,0.00,VWS V14.01,2013-04-02 21:51:00,
2013-04-02 14:56:00,60.8,42.1,30.03,SSW,202,5.4,5.4,50,0.00,,,0.00,VWS V14.01,2013-04-02 21:56:00,
2013-04-02 15:02:00,60.1,42.4,30.03,South,180,3.1,3.6,52,0.00,,,0.00,VWS V14.01,2013-04-02 22:02:00,
2013-04-02 15:07:00,59.4,42.7,30.03,SW,225,3.6,3.6,54,0.00,,,0.00,VWS V14.01,2013-04-02 22:07:00,
2013-04-02 15:12:00,59.4,43.2,30.03,SSE,158,3.1,4.0,55,0.00,,,0.00,VWS V14.01,2013-04-02 22:12:00,
2013-04-02 15:18:00,59.4,43.2,30.06,South,180,3.6,3.6,55,0.00,,,0.00,VWS V14.01,2013-04-02 22:18:00,
2013-04-02 15:23:00,59.4,43.2,30.06,South,180,3.6,4.5,55,0.00,,,0.00,VWS V14.01,2013-04-02 22:23:00,
2013-04-02 15:28:00,58.5,42.8,30.06,WSW,248,2.7,8.7,56,0.00,,,0.00,VWS V14.01,2013-04-02 22:28:00,
2013-04-02 15:33:00,58.5,43.8,30.03,SSW,202,3.1,3.6,58,0.00,,,0.00,VWS V14.01,2013-04-02 22:33:00,
2013-04-02 15:39:00,59.0,44.3,30.03,SSW,202,5.8,5.8,58,0.00,,,0.00,VWS V14.01,2013-04-02 22:39:00,
2013-04-02 15:44:00,59.4,44.6,30.03,NNW,338,4.0,4.0,58,0.00,,,0.00,VWS V14.01,2013-04-02 22:44:00,
2013-04-02 15:49:00,60.6,44.8,30.03,SSW,202,3.1,3.6,56,0.00,,,0.00,VWS V14.01,2013-04-02 22:49:00,
2013-04-02 15:55:00,62.1,44.2,30.03,SSW,202,2.7,4.5,52,0.00,,,0.00,VWS V14.01,2013-04-02 22:55:00,
2013-04-02 16:01:00,62.8,43.9,30.03,SW,225,2.7,3.6,50,0.00,,,0.00,VWS V14.01,2013-04-02 23:01:00,
2013-04-02 16:06:00,63.9,44.3,30.03,SSW,202,4.9,4.9,49,0.00,,,0.00,VWS V14.01,2013-04-02 23:06:00,
2013-04-02 16:12:00,63.7,43.1,30.03,WSW,248,5.4,5.8,47,0.00,,,0.00,VWS V14.01,2013-04-02 23:12:00,
2013-04-02 16:17:00,63.3,43.3,30.03,SSW,202,2.2,2.7,48,0.00,,,0.00,VWS V14.01,2013-04-02 23:17:00,
2013-04-02 16:22:00,62.6,42.7,30.03,SSE,158,8.1,10.1,48,0.00,,,0.00,VWS V14.01,2013-04-02 23:22:00,
2013-04-02 16:27:00,62.1,43.2,30.03,SSE,158,3.1,5.4,50,0.00,,,0.00,VWS V14.01,2013-04-02 23:27:00,
2013-04-02 16:33:00,62.1,42.7,30.00,SSW,202,5.4,8.3,49,0.00,,,0.00,VWS V14.01,2013-04-02 23:33:00,
2013-04-02 16:38:00,61.9,43.1,30.00,SSW,202,3.6,7.6,50,0.00,,,0.00,VWS V14.01,2013-04-02 23:38:00,
2013-04-02 16:43:00,63.5,44.0,30.00,WNW,292,0.0,0.0,49,0.00,,,0.00,VWS V14.01,2013-04-02 23:43:00,
2013-04-02 16:48:00,64.0,44.0,30.00,WNW,292,3.1,3.6,48,0.00,,,0.00,VWS V14.01,2013-04-02 23:48:00,
2013-04-02 16:54:00,64.4,43.2,30.00,SSW,202,3.6,3.6,46,0.00,,,0.00,VWS V14.01,2013-04-02 23:54:00,
2013-04-02 16:59:00,64.6,43.4,30.00,SSW,202,0.0,2.7,46,0.00,,,0.00,VWS V14.01,2013-04-02 23:59:00,
2013-04-02 17:04:00,64.8,43.5,30.00,West,270,2.7,5.4,46,0.00,,,0.00,VWS V14.01,2013-04-03 00:04:00,
2013-04-02 17:10:00,63.1,42.6,30.00,WSW,248,2.2,6.3,47,0.00,,,0.00,VWS V14.01,2013-04-03 00:10:00,
2013-04-02 17:15:00,63.0,43.0,30.00,SSE,158,2.2,3.1,48,0.00,,,0.00,VWS V14.01,2013-04-03 00:15:00,
2013-04-02 17:20:00,62.2,42.9,30.00,SSE,158,3.1,3.6,49,0.00,,,0.00,VWS V14.01,2013-04-03 00:20:00,
2013-04-02 17:25:00,60.6,42.4,30.00,South,180,5.8,5.8,51,0.00,,,0.00,VWS V14.01,2013-04-03 00:25:00,
2013-04-02 17:30:00,59.0,42.9,30.00,North,0,5.8,6.3,55,0.00,,,0.00,VWS V14.01,2013-04-03 00:30:00,
2013-04-02 17:36:00,58.5,43.3,30.00,South,180,3.1,8.7,57,0.00,,,0.00,VWS V14.01,2013-04-03 00:36:00,
2013-04-02 17:41:00,58.1,43.9,30.00,SSW,202,6.3,6.3,59,0.00,,,0.00,VWS V14.01,2013-04-03 00:41:00,
2013-04-02 17:47:00,57.6,43.8,30.00,SSE,158,7.2,7.2,60,0.00,,,0.00,VWS V14.01,2013-04-03 00:47:00,
2013-04-02 17:52:00,57.4,44.1,30.00,North,0,4.0,4.0,61,0.00,,,0.00,VWS V14.01,2013-04-03 00:52:00,
2013-04-02 17:57:00,57.0,44.6,30.00,SW,225,3.1,3.6,63,0.00,,,0.00,VWS V14.01,2013-04-03 00:57:00,
2013-04-02 18:03:00,56.8,44.8,30.00,WSW,248,3.1,3.6,64,0.00,,,0.00,VWS V14.01,2013-04-03 01:03:00,
2013-04-02 18:08:00,56.1,44.5,30.00,WNW,292,4.0,7.6,65,0.00,,,0.00,VWS V14.01,2013-04-03 01:08:00,
2013-04-02 18:13:00,55.9,45.2,30.00,SSE,158,2.7,4.9,67,0.00,,,0.00,VWS V14.01,2013-04-03 01:13:00,
2013-04-02 18:18:00,55.4,45.0,30.00,South,180,2.7,7.2,68,0.00,,,0.00,VWS V14.01,2013-04-03 01:18:00,
2013-04-02 18:23:00,55.4,45.4,30.00,WSW,248,5.4,5.4,69,0.00,,,0.00,VWS V14.01,2013-04-03 01:23:00,
2013-04-02 18:28:00,54.9,46.0,30.00,SSW,202,3.6,3.6,72,0.00,,,0.00,VWS V14.01,2013-04-03 01:28:00,
2013-04-02 18:33:00,54.9,46.4,30.00,WNW,292,3.1,3.1,73,0.00,,,0.00,VWS V14.01,2013-04-03 01:33:00,
2013-04-02 18:39:00,54.5,46.0,30.00,NNE,22,0.0,4.0,73,0.00,,,0.00,VWS V14.01,2013-04-03 01:39:00,
2013-04-02 18:44:00,54.5,46.0,30.00,WNW,292,2.2,2.7,73,0.00,,,0.00,VWS V14.01,2013-04-03 01:44:00,
2013-04-02 18:49:00,54.5,46.0,30.00,SSW,202,5.8,5.8,73,0.00,,,0.00,VWS V14.01,2013-04-03 01:49:00,
2013-04-02 18:54:00,54.1,45.7,30.00,SSW,202,5.8,5.8,73,0.00,,,0.00,VWS V14.01,2013-04-03 01:54:00,
2013-04-02 18:59:00,54.0,45.9,30.00,South,180,2.7,2.7,74,0.00,,,0.00,VWS V14.01,2013-04-03 01:59:00,
2013-04-02 19:05:00,53.6,45.5,30.00,WSW,248,2.7,2.7,74,0.00,,,0.00,VWS V14.01,2013-04-03 02:05:00,
2013-04-02 19:10:00,53.2,45.5,30.00,SSW,202,2.2,2.7,75,0.00,,,0.00,VWS V14.01,2013-04-03 02:10:00,
2013-04-02 19:16:00,53.2,45.9,30.00,SSW,202,2.2,2.2,76,0.00,,,0.00,VWS V14.01,2013-04-03 02:16:00,
2013-04-02 19:21:00,52.9,45.9,30.00,SSW,202,2.2,2.2,77,0.00,,,0.00,VWS V14.01,2013-04-03 02:21:00,
2013-04-02 19:27:00,52.7,46.0,30.00,SSW,202,2.2,2.2,78,0.00,,,0.00,VWS V14.01,2013-04-03 02:27:00,
2013-04-02 19:32:00,52.5,46.2,30.00,SSW,202,2.2,2.2,79,0.00,,,0.00,VWS V14.01,2013-04-03 02:32:00,
2013-04-02 19:37:00,52.7,46.7,30.00,SSW,202,2.2,2.2,80,0.00,,,0.00,VWS V14.01,2013-04-03 02:37:00,
2013-04-02 19:43:00,52.3,46.4,30.00,SSW,202,2.2,2.2,80,0.00,,,0.00,VWS V14.01,2013-04-03 02:43:00,
2013-04-02 19:48:00,52.2,46.5,30.00,SSW,202,2.2,2.2,81,0.00,,,0.00,VWS V14.01,2013-04-03 02:48:00,
2013-04-02 19:53:00,52.2,46.8,30.00,SSW,202,2.2,2.2,82,0.00,,,0.00,VWS V14.01,2013-04-03 02:53:00,
2013-04-02 19:58:00,52.0,47.0,30.00,SSW,202,2.2,2.2,83,0.00,,,0.00,VWS V14.01,2013-04-03 02:58:00,
2013-04-02 20:04:00,51.8,46.8,30.00,SSW,202,2.2,2.2,83,0.00,,,0.00,VWS V14.01,2013-04-03 03:04:00,
2013-04-02 20:09:00,51.8,47.1,30.00,SSW,202,2.2,2.2,84,0.00,,,0.00,VWS V14.01,2013-04-03 03:09:00,
2013-04-02 20:14:00,52.0,47.3,30.00,SSW,202,4.0,4.0,84,0.00,,,0.00,VWS V14.01,2013-04-03 03:14:00,
2013-04-02 20:20:00,52.0,47.3,30.00,SSW,202,4.0,4.0,84,0.00,,,0.00,VWS V14.01,2013-04-03 03:20:00,
2013-04-02 20:25:00,52.0,47.6,30.00,SSW,202,4.0,4.0,85,0.00,,,0.00,VWS V14.01,2013-04-03 03:25:00,
2013-04-02 20:30:00,51.8,47.4,30.00,SSW,202,4.0,4.0,85,0.00,,,0.00,VWS V14.01,2013-04-03 03:30:00,
2013-04-02 20:35:00,51.8,47.4,30.00,SSW,202,4.0,4.0,85,0.00,,,0.00,VWS V14.01,2013-04-03 03:35:00,
2013-04-02 20:41:00,52.0,47.6,30.00,SSW,202,4.0,4.0,85,0.00,,,0.00,VWS V14.01,2013-04-03 03:41:00,
2013-04-02 20:47:00,52.0,47.6,30.00,SSW,202,4.0,4.0,85,0.00,,,0.00,VWS V14.01,2013-04-03 03:47:00,
2013-04-02 20:53:00,51.8,47.4,30.00,SSW,202,4.0,4.0,85,0.00,,,0.00,VWS V14.01,2013-04-03 03:53:00,
2013-04-02 20:58:00,51.8,47.4,30.00,SSW,202,4.0,4.0,85,0.00,,,0.00,VWS V14.01,2013-04-03 03:58:00,
2013-04-02 21:00:00,51.8,47.4,30.00,WSW,248,0.0,0.0,85,0.00,,,0.00,VWS V14.01,2013-04-03 04:00:00,
2013-04-02 21:03:00,51.6,47.6,30.03,WSW,248,0.0,0.0,86,0.00,,,0.00,VWS V14.01,2013-04-03 04:03:00,
2013-04-02 21:06:00,51.6,47.6,30.03,WSW,248,0.0,0.0,86,0.00,,,0.00,VWS V14.01,2013-04-03 04:06:00,
2013-04-02 21:12:00,51.8,47.4,30.03,WSW,248,0.0,0.0,85,0.00,,,0.00,VWS V14.01,2013-04-03 04:12:00,
2013-04-02 21:17:00,51.6,47.6,30.03,WNW,292,3.6,3.6,86,0.00,,,0.00,VWS V14.01,2013-04-03 04:17:00,
2013-04-02 21:22:00,51.6,47.6,30.03,WNW,292,3.6,3.6,86,0.00,,,0.00,VWS V14.01,2013-04-03 04:22:00,
2013-04-02 21:27:00,51.6,47.3,30.03,WNW,292,3.6,3.6,85,0.00,,,0.00,VWS V14.01,2013-04-03 04:27:00,
2013-04-02 21:32:00,51.6,47.3,30.03,WNW,292,3.6,3.6,85,0.00,,,0.00,VWS V14.01,2013-04-03 04:32:00,
2013-04-02 21:37:00,51.6,47.3,30.03,WNW,292,3.6,3.6,85,0.00,,,0.00,VWS V14.01,2013-04-03 04:37:00,
2013-04-02 21:43:00,51.6,47.3,30.03,WNW,292,3.6,3.6,85,0.00,,,0.00,VWS V14.01,2013-04-03 04:43:00,
2013-04-02 21:48:00,51.6,47.3,30.03,SSW,202,5.8,5.8,85,0.00,,,0.00,VWS V14.01,2013-04-03 04:48:00,
2013-04-02 21:53:00,51.6,47.3,30.03,SSW,202,5.8,5.8,85,0.00,,,0.00,VWS V14.01,2013-04-03 04:53:00,
2013-04-02 21:58:00,51.6,47.3,30.03,SSW,202,5.8,5.8,85,0.00,,,0.00,VWS V14.01,2013-04-03 04:58:00,
2013-04-02 22:04:00,51.6,47.3,30.03,SSW,202,5.8,5.8,85,0.00,,,0.00,VWS V14.01,2013-04-03 05:04:00,
2013-04-02 22:09:00,51.8,47.4,30.03,SSW,202,5.8,5.8,85,0.00,,,0.00,VWS V14.01,2013-04-03 05:09:00,
2013-04-02 22:14:00,51.6,47.3,30.03,SSW,202,5.8,5.8,85,0.00,,,0.00,VWS V14.01,2013-04-03 05:14:00,
2013-04-02 22:19:00,51.6,47.0,30.03,SSW,202,5.8,5.8,84,0.00,,,0.00,VWS V14.01,2013-04-03 05:19:00,
2013-04-02 22:25:00,51.6,47.0,30.03,SSW,202,5.8,5.8,84,0.00,,,0.00,VWS V14.01,2013-04-03 05:25:00,
2013-04-02 22:30:00,51.4,46.5,30.03,SSW,202,2.7,5.8,83,0.00,,,0.00,VWS V14.01,2013-04-03 05:30:00,
2013-04-02 22:35:00,51.3,46.3,30.03,SSW,202,2.7,2.7,83,0.00,,,0.00,VWS V14.01,2013-04-03 05:35:00,
2013-04-02 22:40:00,51.3,46.3,30.03,SSW,202,2.7,2.7,83,0.00,,,0.00,VWS V14.01,2013-04-03 05:40:00,
2013-04-02 22:46:00,51.3,46.3,30.03,SSW,202,3.1,3.1,83,0.00,,,0.00,VWS V14.01,2013-04-03 05:46:00,
2013-04-02 22:51:00,51.3,46.0,30.03,SSW,202,3.1,3.1,82,0.00,,,0.00,VWS V14.01,2013-04-03 05:51:00,
2013-04-02 22:56:00,51.4,46.1,30.03,SSW,202,3.1,3.1,82,0.00,,,0.00,VWS V14.01,2013-04-03 05:56:00,
2013-04-02 23:01:00,51.4,46.1,30.03,SSW,202,3.1,3.1,82,0.00,,,0.00,VWS V14.01,2013-04-03 06:01:00,
2013-04-02 23:07:00,51.4,46.1,30.03,South,180,2.7,2.7,82,0.00,,,0.00,VWS V14.01,2013-04-03 06:07:00,
2013-04-02 23:12:00,51.4,46.1,30.03,South,180,2.7,2.7,82,0.00,,,0.00,VWS V14.01,2013-04-03 06:12:00,
2013-04-02 23:17:00,51.6,46.3,30.03,South,180,2.7,2.7,82,0.00,,,0.00,VWS V14.01,2013-04-03 06:17:00,
2013-04-02 23:22:00,51.6,46.0,30.03,South,180,2.7,2.7,81,0.00,,,0.00,VWS V14.01,2013-04-03 06:22:00,
2013-04-02 23:27:00,51.8,45.8,30.03,South,180,2.7,2.7,80,0.00,,,0.00,VWS V14.01,2013-04-03 06:27:00,
2013-04-02 23:32:00,51.8,45.8,30.03,South,180,2.7,2.7,80,0.00,,,0.00,VWS V14.01,2013-04-03 06:32:00,
2013-04-02 23:37:00,51.8,45.8,30.03,South,180,2.7,2.7,80,0.00,,,0.00,VWS V14.01,2013-04-03 06:37:00,
2013-04-02 23:43:00,51.8,45.8,30.03,South,180,2.7,2.7,80,0.00,,,0.00,VWS V14.01,2013-04-03 06:43:00,
2013-04-02 23:48:00,52.0,45.7,30.03,SSW,202,0.0,0.0,79,0.00,,,0.00,VWS V14.01,2013-04-03 06:48:00,
2013-04-02 23:53:00,52.0,45.7,30.03,SSW,202,0.0,0.0,79,0.00,,,0.00,VWS V14.01,2013-04-03 06:53:00,
2013-04-02 23:58:00,52.2,45.8,30.03,SSW,202,0.0,0.0,79,0.00,,,0.00,VWS V14.01,2013-04-03 06:58:00,